sensor_id;sensor_type;location;lat;lon;timestamp;P1;durP1;ratioP1;P2;durP2;ratioP2
9942;SDS011;5010;45.080;7.634;2024-02-23T00:01:57;36.83;;;18.05;;
9942;SDS011;5010;45.080;7.634;2024-02-23T00:04:24;32.70;;;17.27;;
9942;SDS011;5010;45.080;7.634;2024-02-23T00:06:51;36.08;;;21.92;;
9942;SDS011;5010;45.080;7.634;2024-02-23T00:09:19;49.88;;;32.22;;
9942;SDS011;5010;45.080;7.634;2024-02-23T00:11:46;54.53;;;33.40;;
9942;SDS011;5010;45.080;7.634;2024-02-23T00:14:15;45.53;;;29.70;;
9942;SDS011;5010;45.080;7.634;2024-02-23T00:16:43;32.10;;;20.85;;
9942;SDS011;5010;45.080;7.634;2024-02-23T00:19:13;30.60;;;19.15;;
9942;SDS011;5010;45.080;7.634;2024-02-23T00:21:43;21.83;;;14.70;;
9942;SDS011;5010;45.080;7.634;2024-02-23T00:24:14;72.30;;;38.13;;
9942;SDS011;5010;45.080;7.634;2024-02-23T00:26:43;85.80;;;45.63;;
9942;SDS011;5010;45.080;7.634;2024-02-23T00:29:11;55.92;;;33.30;;
9942;SDS011;5010;45.080;7.634;2024-02-23T00:31:39;21.95;;;14.70;;
9942;SDS011;5010;45.080;7.634;2024-02-23T00:34:06;19.55;;;13.98;;
9942;SDS011;5010;45.080;7.634;2024-02-23T00:36:37;23.52;;;14.55;;
9942;SDS011;5010;45.080;7.634;2024-02-23T00:39:05;26.63;;;15.05;;
9942;SDS011;5010;45.080;7.634;2024-02-23T00:41:33;32.70;;;18.20;;
9942;SDS011;5010;45.080;7.634;2024-02-23T00:44:01;18.83;;;14.00;;
9942;SDS011;5010;45.080;7.634;2024-02-23T00:46:28;25.73;;;12.73;;
9942;SDS011;5010;45.080;7.634;2024-02-23T00:48:55;23.05;;;12.25;;
9942;SDS011;5010;45.080;7.634;2024-02-23T00:51:23;27.83;;;16.30;;
9942;SDS011;5010;45.080;7.634;2024-02-23T00:53:52;24.75;;;14.57;;
9942;SDS011;5010;45.080;7.634;2024-02-23T00:56:19;21.30;;;12.43;;
9942;SDS011;5010;45.080;7.634;2024-02-23T00:58:47;23.35;;;13.32;;
9942;SDS011;5010;45.080;7.634;2024-02-23T01:01:14;27.02;;;15.02;;
9942;SDS011;5010;45.080;7.634;2024-02-23T01:03:42;36.60;;;25.02;;
9942;SDS011;5010;45.080;7.634;2024-02-23T01:06:09;47.67;;;30.45;;
9942;SDS011;5010;45.080;7.634;2024-02-23T01:08:37;28.63;;;17.17;;
9942;SDS011;5010;45.080;7.634;2024-02-23T01:11:06;26.90;;;13.48;;
9942;SDS011;5010;45.080;7.634;2024-02-23T01:13:34;21.98;;;12.88;;
9942;SDS011;5010;45.080;7.634;2024-02-23T01:16:01;25.10;;;13.50;;
9942;SDS011;5010;45.080;7.634;2024-02-23T01:18:29;23.20;;;13.80;;
9942;SDS011;5010;45.080;7.634;2024-02-23T01:20:56;27.08;;;16.58;;
9942;SDS011;5010;45.080;7.634;2024-02-23T01:23:24;23.98;;;14.02;;
9942;SDS011;5010;45.080;7.634;2024-02-23T01:25:52;18.27;;;14.57;;
9942;SDS011;5010;45.080;7.634;2024-02-23T01:28:21;21.77;;;14.77;;
9942;SDS011;5010;45.080;7.634;2024-02-23T01:30:48;25.58;;;14.65;;
9942;SDS011;5010;45.080;7.634;2024-02-23T01:33:16;27.13;;;14.75;;
9942;SDS011;5010;45.080;7.634;2024-02-23T01:35:43;20.45;;;13.40;;
9942;SDS011;5010;45.080;7.634;2024-02-23T01:38:11;27.10;;;15.43;;
9942;SDS011;5010;45.080;7.634;2024-02-23T01:40:44;26.80;;;15.88;;
9942;SDS011;5010;45.080;7.634;2024-02-23T01:43:11;26.08;;;15.98;;
9942;SDS011;5010;45.080;7.634;2024-02-23T01:45:40;23.05;;;12.18;;
9942;SDS011;5010;45.080;7.634;2024-02-23T01:48:08;26.27;;;13.48;;
9942;SDS011;5010;45.080;7.634;2024-02-23T01:50:36;26.58;;;16.10;;
9942;SDS011;5010;45.080;7.634;2024-02-23T01:53:03;22.95;;;15.80;;
9942;SDS011;5010;45.080;7.634;2024-02-23T01:55:31;20.98;;;14.85;;
9942;SDS011;5010;45.080;7.634;2024-02-23T01:57:59;37.67;;;21.42;;
9942;SDS011;5010;45.080;7.634;2024-02-23T02:00:28;28.63;;;17.92;;
9942;SDS011;5010;45.080;7.634;2024-02-23T02:02:58;26.98;;;13.73;;
9942;SDS011;5010;45.080;7.634;2024-02-23T02:05:25;22.70;;;13.93;;
9942;SDS011;5010;45.080;7.634;2024-02-23T02:07:53;30.10;;;15.05;;
9942;SDS011;5010;45.080;7.634;2024-02-23T02:10:24;29.35;;;16.02;;
9942;SDS011;5010;45.080;7.634;2024-02-23T02:12:52;23.75;;;15.02;;
9942;SDS011;5010;45.080;7.634;2024-02-23T02:15:20;21.98;;;13.80;;
9942;SDS011;5010;45.080;7.634;2024-02-23T02:17:48;27.50;;;15.52;;
9942;SDS011;5010;45.080;7.634;2024-02-23T02:20:17;24.05;;;13.07;;
9942;SDS011;5010;45.080;7.634;2024-02-23T02:22:50;26.85;;;12.60;;
9942;SDS011;5010;45.080;7.634;2024-02-23T02:25:17;21.63;;;13.68;;
9942;SDS011;5010;45.080;7.634;2024-02-23T02:27:45;22.58;;;12.95;;
9942;SDS011;5010;45.080;7.634;2024-02-23T02:30:12;17.77;;;11.35;;
9942;SDS011;5010;45.080;7.634;2024-02-23T02:32:40;28.77;;;13.98;;
9942;SDS011;5010;45.080;7.634;2024-02-23T02:35:10;19.20;;;11.43;;
9942;SDS011;5010;45.080;7.634;2024-02-23T02:37:39;19.52;;;10.98;;
9942;SDS011;5010;45.080;7.634;2024-02-23T02:40:07;21.77;;;12.98;;
9942;SDS011;5010;45.080;7.634;2024-02-23T02:42:35;22.75;;;13.40;;
9942;SDS011;5010;45.080;7.634;2024-02-23T02:45:03;15.93;;;10.98;;
9942;SDS011;5010;45.080;7.634;2024-02-23T02:47:30;13.07;;;9.00;;
9942;SDS011;5010;45.080;7.634;2024-02-23T02:49:58;15.52;;;11.70;;
9942;SDS011;5010;45.080;7.634;2024-02-23T02:52:26;20.75;;;11.35;;
9942;SDS011;5010;45.080;7.634;2024-02-23T02:54:55;21.95;;;13.70;;
9942;SDS011;5010;45.080;7.634;2024-02-23T02:57:22;16.00;;;10.00;;
9942;SDS011;5010;45.080;7.634;2024-02-23T02:59:50;19.88;;;12.10;;
9942;SDS011;5010;45.080;7.634;2024-02-23T03:02:17;21.27;;;11.35;;
9942;SDS011;5010;45.080;7.634;2024-02-23T03:04:48;22.10;;;12.40;;
9942;SDS011;5010;45.080;7.634;2024-02-23T03:07:16;18.15;;;12.02;;
9942;SDS011;5010;45.080;7.634;2024-02-23T03:09:44;17.73;;;10.68;;
9942;SDS011;5010;45.080;7.634;2024-02-23T03:12:13;16.70;;;11.10;;
9942;SDS011;5010;45.080;7.634;2024-02-23T03:14:40;17.60;;;10.55;;
9942;SDS011;5010;45.080;7.634;2024-02-23T03:17:07;15.48;;;10.63;;
9942;SDS011;5010;45.080;7.634;2024-02-23T03:19:35;19.80;;;11.88;;
9942;SDS011;5010;45.080;7.634;2024-02-23T03:22:03;21.33;;;14.13;;
9942;SDS011;5010;45.080;7.634;2024-02-23T03:24:31;19.52;;;11.50;;
9942;SDS011;5010;45.080;7.634;2024-02-23T03:26:58;16.63;;;9.75;;
9942;SDS011;5010;45.080;7.634;2024-02-23T03:29:27;12.93;;;8.18;;
9942;SDS011;5010;45.080;7.634;2024-02-23T03:31:56;19.00;;;10.23;;
9942;SDS011;5010;45.080;7.634;2024-02-23T03:34:23;19.73;;;10.52;;
9942;SDS011;5010;45.080;7.634;2024-02-23T03:36:51;14.68;;;9.68;;
9942;SDS011;5010;45.080;7.634;2024-02-23T03:39:18;14.05;;;9.40;;
9942;SDS011;5010;45.080;7.634;2024-02-23T03:41:45;17.25;;;10.75;;
9942;SDS011;5010;45.080;7.634;2024-02-23T03:44:13;15.20;;;8.85;;
9942;SDS011;5010;45.080;7.634;2024-02-23T03:46:42;17.20;;;10.13;;
9942;SDS011;5010;45.080;7.634;2024-02-23T03:49:09;15.30;;;8.05;;
9942;SDS011;5010;45.080;7.634;2024-02-23T03:51:37;18.08;;;8.38;;
9942;SDS011;5010;45.080;7.634;2024-02-23T03:54:04;17.40;;;10.68;;
9942;SDS011;5010;45.080;7.634;2024-02-23T03:56:37;15.55;;;10.20;;
9942;SDS011;5010;45.080;7.634;2024-02-23T03:59:05;15.10;;;8.90;;
9942;SDS011;5010;45.080;7.634;2024-02-23T04:01:34;10.75;;;6.63;;
9942;SDS011;5010;45.080;7.634;2024-02-23T04:04:04;20.15;;;9.40;;
9942;SDS011;5010;45.080;7.634;2024-02-23T04:06:33;17.05;;;10.50;;
9942;SDS011;5010;45.080;7.634;2024-02-23T04:09:01;20.30;;;12.27;;
9942;SDS011;5010;45.080;7.634;2024-02-23T04:11:30;13.73;;;9.73;;
9942;SDS011;5010;45.080;7.634;2024-02-23T04:13:57;17.13;;;11.90;;
9942;SDS011;5010;45.080;7.634;2024-02-23T04:16:25;15.00;;;9.07;;
9942;SDS011;5010;45.080;7.634;2024-02-23T04:18:53;24.38;;;11.07;;
9942;SDS011;5010;45.080;7.634;2024-02-23T04:21:22;14.18;;;9.23;;
9942;SDS011;5010;45.080;7.634;2024-02-23T04:23:50;17.20;;;9.25;;
9942;SDS011;5010;45.080;7.634;2024-02-23T04:26:17;14.13;;;9.85;;
9942;SDS011;5010;45.080;7.634;2024-02-23T04:28:45;14.38;;;8.85;;
9942;SDS011;5010;45.080;7.634;2024-02-23T04:31:12;17.48;;;10.35;;
9942;SDS011;5010;45.080;7.634;2024-02-23T04:33:40;15.25;;;8.35;;
9942;SDS011;5010;45.080;7.634;2024-02-23T04:36:07;15.02;;;9.40;;
9942;SDS011;5010;45.080;7.634;2024-02-23T04:38:37;20.05;;;11.50;;
9942;SDS011;5010;45.080;7.634;2024-02-23T04:41:04;19.60;;;12.52;;
9942;SDS011;5010;45.080;7.634;2024-02-23T04:43:33;19.10;;;8.95;;
9942;SDS011;5010;45.080;7.634;2024-02-23T04:46:00;12.77;;;8.98;;
9942;SDS011;5010;45.080;7.634;2024-02-23T04:48:28;11.85;;;8.07;;
9942;SDS011;5010;45.080;7.634;2024-02-23T04:50:56;21.65;;;11.43;;
9942;SDS011;5010;45.080;7.634;2024-02-23T04:53:23;14.98;;;8.20;;
9942;SDS011;5010;45.080;7.634;2024-02-23T04:55:52;17.25;;;9.18;;
9942;SDS011;5010;45.080;7.634;2024-02-23T04:58:20;14.93;;;8.55;;
9942;SDS011;5010;45.080;7.634;2024-02-23T07:03:43;17.50;;;10.88;;
9942;SDS011;5010;45.080;7.634;2024-02-23T07:06:16;13.85;;;7.22;;
9942;SDS011;5010;45.080;7.634;2024-02-23T09:09:02;7.50;;;5.85;;
9942;SDS011;5010;45.080;7.634;2024-02-23T09:11:29;9.07;;;4.93;;
9942;SDS011;5010;45.080;7.634;2024-02-23T09:13:57;9.68;;;5.68;;
9942;SDS011;5010;45.080;7.634;2024-02-23T09:19:25;9.85;;;6.28;;
9942;SDS011;5010;45.080;7.634;2024-02-23T09:21:53;10.43;;;4.47;;
9942;SDS011;5010;45.080;7.634;2024-02-23T09:24:22;8.23;;;5.00;;
9942;SDS011;5010;45.080;7.634;2024-02-23T09:26:51;10.55;;;6.38;;
9942;SDS011;5010;45.080;7.634;2024-02-23T09:29:43;10.27;;;6.25;;
9942;SDS011;5010;45.080;7.634;2024-02-23T09:32:11;16.85;;;6.20;;
9942;SDS011;5010;45.080;7.634;2024-02-23T09:34:38;10.43;;;5.85;;
9942;SDS011;5010;45.080;7.634;2024-02-23T09:37:06;8.77;;;5.60;;
9942;SDS011;5010;45.080;7.634;2024-02-23T09:39:35;6.53;;;4.30;;
9942;SDS011;5010;45.080;7.634;2024-02-23T09:42:03;7.22;;;4.90;;
9942;SDS011;5010;45.080;7.634;2024-02-23T10:37:44;7.18;;;4.78;;
9942;SDS011;5010;45.080;7.634;2024-02-23T10:40:16;6.25;;;5.35;;
9942;SDS011;5010;45.080;7.634;2024-02-23T10:42:51;7.93;;;5.47;;
9942;SDS011;5010;45.080;7.634;2024-02-23T10:45:31;7.20;;;5.68;;
9942;SDS011;5010;45.080;7.634;2024-02-23T10:48:01;10.95;;;6.35;;
9942;SDS011;5010;45.080;7.634;2024-02-23T10:50:29;10.05;;;6.63;;
9942;SDS011;5010;45.080;7.634;2024-02-23T10:53:04;8.15;;;5.50;;
9942;SDS011;5010;45.080;7.634;2024-02-23T10:55:35;9.65;;;4.50;;
9942;SDS011;5010;45.080;7.634;2024-02-23T10:58:04;9.38;;;5.25;;
9942;SDS011;5010;45.080;7.634;2024-02-23T11:00:36;14.55;;;5.22;;
9942;SDS011;5010;45.080;7.634;2024-02-23T11:03:04;9.20;;;5.85;;
9942;SDS011;5010;45.080;7.634;2024-02-23T11:09:06;9.38;;;7.10;;
9942;SDS011;5010;45.080;7.634;2024-02-23T11:11:34;7.95;;;5.25;;
9942;SDS011;5010;45.080;7.634;2024-02-23T11:14:07;7.90;;;5.80;;
9942;SDS011;5010;45.080;7.634;2024-02-23T11:16:38;8.98;;;5.85;;
9942;SDS011;5010;45.080;7.634;2024-02-23T11:19:08;9.05;;;5.40;;
9942;SDS011;5010;45.080;7.634;2024-02-23T11:21:36;8.10;;;5.90;;
9942;SDS011;5010;45.080;7.634;2024-02-23T11:24:06;8.80;;;5.18;;
9942;SDS011;5010;45.080;7.634;2024-02-23T11:26:36;10.25;;;6.40;;
9942;SDS011;5010;45.080;7.634;2024-02-23T11:29:09;9.43;;;5.15;;
9942;SDS011;5010;45.080;7.634;2024-02-23T11:31:43;8.57;;;4.97;;
9942;SDS011;5010;45.080;7.634;2024-02-23T11:34:12;7.80;;;5.30;;
9942;SDS011;5010;45.080;7.634;2024-02-23T11:36:40;9.25;;;5.38;;
9942;SDS011;5010;45.080;7.634;2024-02-23T11:39:09;7.68;;;4.82;;
9942;SDS011;5010;45.080;7.634;2024-02-23T11:41:38;8.95;;;5.82;;
9942;SDS011;5010;45.080;7.634;2024-02-23T11:44:06;8.95;;;6.00;;
9942;SDS011;5010;45.080;7.634;2024-02-23T11:46:34;10.48;;;5.68;;
9942;SDS011;5010;45.080;7.634;2024-02-23T11:49:02;7.97;;;5.70;;
9942;SDS011;5010;45.080;7.634;2024-02-23T11:51:29;10.75;;;6.15;;
9942;SDS011;5010;45.080;7.634;2024-02-23T11:53:57;6.90;;;5.05;;
9942;SDS011;5010;45.080;7.634;2024-02-23T11:56:27;8.00;;;5.72;;
9942;SDS011;5010;45.080;7.634;2024-02-23T11:58:56;8.48;;;5.78;;
9942;SDS011;5010;45.080;7.634;2024-02-23T12:01:24;8.38;;;5.70;;
9942;SDS011;5010;45.080;7.634;2024-02-23T12:03:52;11.38;;;5.60;;
9942;SDS011;5010;45.080;7.634;2024-02-23T12:06:20;7.57;;;6.13;;
9942;SDS011;5010;45.080;7.634;2024-02-23T12:08:48;7.28;;;5.53;;
9942;SDS011;5010;45.080;7.634;2024-02-23T12:11:16;8.48;;;6.40;;
9942;SDS011;5010;45.080;7.634;2024-02-23T12:13:45;12.30;;;7.75;;
9942;SDS011;5010;45.080;7.634;2024-02-23T12:16:13;9.60;;;6.00;;
9942;SDS011;5010;45.080;7.634;2024-02-23T12:18:41;8.98;;;6.65;;
9942;SDS011;5010;45.080;7.634;2024-02-23T12:21:09;7.63;;;5.75;;
9942;SDS011;5010;45.080;7.634;2024-02-23T12:23:38;8.60;;;6.40;;
9942;SDS011;5010;45.080;7.634;2024-02-23T12:26:09;10.32;;;6.72;;
9942;SDS011;5010;45.080;7.634;2024-02-23T12:28:38;8.55;;;5.97;;
9942;SDS011;5010;45.080;7.634;2024-02-23T12:31:07;10.93;;;6.65;;
9942;SDS011;5010;45.080;7.634;2024-02-23T12:33:36;6.90;;;5.55;;
9942;SDS011;5010;45.080;7.634;2024-02-23T12:36:05;11.45;;;5.90;;
9942;SDS011;5010;45.080;7.634;2024-02-23T12:38:34;8.80;;;6.28;;
9942;SDS011;5010;45.080;7.634;2024-02-23T12:41:02;11.48;;;5.88;;
9942;SDS011;5010;45.080;7.634;2024-02-23T12:43:31;12.13;;;7.38;;
9942;SDS011;5010;45.080;7.634;2024-02-23T12:45:59;9.50;;;7.95;;
9942;SDS011;5010;45.080;7.634;2024-02-23T12:48:30;8.70;;;6.70;;
9942;SDS011;5010;45.080;7.634;2024-02-23T12:50:58;13.00;;;8.30;;
9942;SDS011;5010;45.080;7.634;2024-02-23T12:53:32;8.32;;;6.00;;
9942;SDS011;5010;45.080;7.634;2024-02-23T12:56:02;9.40;;;5.90;;
9942;SDS011;5010;45.080;7.634;2024-02-23T12:58:31;11.32;;;7.03;;
9942;SDS011;5010;45.080;7.634;2024-02-23T13:00:59;8.20;;;7.07;;
9942;SDS011;5010;45.080;7.634;2024-02-23T13:03:27;11.25;;;6.68;;
9942;SDS011;5010;45.080;7.634;2024-02-23T13:05:57;10.30;;;6.85;;
9942;SDS011;5010;45.080;7.634;2024-02-23T13:08:25;9.85;;;7.45;;
9942;SDS011;5010;45.080;7.634;2024-02-23T13:10:53;9.55;;;7.20;;
9942;SDS011;5010;45.080;7.634;2024-02-23T13:13:22;11.02;;;8.15;;
9942;SDS011;5010;45.080;7.634;2024-02-23T13:15:50;14.70;;;5.88;;
9942;SDS011;5010;45.080;7.634;2024-02-23T13:18:18;8.25;;;5.60;;
9942;SDS011;5010;45.080;7.634;2024-02-23T13:20:47;7.45;;;5.70;;
9942;SDS011;5010;45.080;7.634;2024-02-23T13:23:16;7.57;;;5.80;;
9942;SDS011;5010;45.080;7.634;2024-02-23T13:25:44;10.25;;;5.53;;
9942;SDS011;5010;45.080;7.634;2024-02-23T13:28:12;8.20;;;6.13;;
9942;SDS011;5010;45.080;7.634;2024-02-23T13:30:40;8.85;;;5.80;;
9942;SDS011;5010;45.080;7.634;2024-02-23T13:33:08;7.60;;;5.97;;
9942;SDS011;5010;45.080;7.634;2024-02-23T13:35:37;9.80;;;6.57;;
9942;SDS011;5010;45.080;7.634;2024-02-23T13:38:05;10.80;;;7.40;;
9942;SDS011;5010;45.080;7.634;2024-02-23T13:40:35;10.23;;;6.13;;
9942;SDS011;5010;45.080;7.634;2024-02-23T13:43:03;9.25;;;7.10;;
9942;SDS011;5010;45.080;7.634;2024-02-23T13:45:32;9.52;;;6.82;;
9942;SDS011;5010;45.080;7.634;2024-02-23T13:48:14;11.25;;;9.45;;
9942;SDS011;5010;45.080;7.634;2024-02-23T13:50:41;11.40;;;8.48;;
9942;SDS011;5010;45.080;7.634;2024-02-23T13:53:10;10.77;;;7.07;;
9942;SDS011;5010;45.080;7.634;2024-02-23T13:55:39;8.38;;;4.95;;
9942;SDS011;5010;45.080;7.634;2024-02-23T13:58:08;9.15;;;6.10;;
9942;SDS011;5010;45.080;7.634;2024-02-23T14:00:36;7.20;;;5.90;;
9942;SDS011;5010;45.080;7.634;2024-02-23T14:03:04;10.43;;;6.80;;
9942;SDS011;5010;45.080;7.634;2024-02-23T14:05:31;12.10;;;5.72;;
9942;SDS011;5010;45.080;7.634;2024-02-23T14:07:59;11.20;;;6.68;;
9942;SDS011;5010;45.080;7.634;2024-02-23T14:10:28;11.02;;;7.18;;
9942;SDS011;5010;45.080;7.634;2024-02-23T16:16:00;19.67;;;9.75;;
9942;SDS011;5010;45.080;7.634;2024-02-23T16:18:27;20.00;;;9.98;;
9942;SDS011;5010;45.080;7.634;2024-02-23T16:23:49;15.90;;;9.82;;
9942;SDS011;5010;45.080;7.634;2024-02-23T16:26:16;15.25;;;8.30;;
9942;SDS011;5010;45.080;7.634;2024-02-23T16:28:43;18.48;;;9.82;;
9942;SDS011;5010;45.080;7.634;2024-02-23T16:31:13;15.30;;;9.68;;
9942;SDS011;5010;45.080;7.634;2024-02-23T16:33:41;15.93;;;11.52;;
9942;SDS011;5010;45.080;7.634;2024-02-23T16:36:08;17.63;;;9.65;;
9942;SDS011;5010;45.080;7.634;2024-02-23T16:41:58;17.13;;;9.25;;
9942;SDS011;5010;45.080;7.634;2024-02-23T16:48:01;12.85;;;8.50;;
9942;SDS011;5010;45.080;7.634;2024-02-23T16:50:33;12.60;;;9.02;;
9942;SDS011;5010;45.080;7.634;2024-02-23T17:10:41;17.95;;;8.43;;
9942;SDS011;5010;45.080;7.634;2024-02-23T17:13:09;17.52;;;9.75;;
9942;SDS011;5010;45.080;7.634;2024-02-23T17:15:46;15.63;;;10.05;;
9942;SDS011;5010;45.080;7.634;2024-02-23T17:18:44;19.80;;;11.63;;
9942;SDS011;5010;45.080;7.634;2024-02-23T17:21:11;16.10;;;11.65;;
9942;SDS011;5010;45.080;7.634;2024-02-23T17:23:48;14.13;;;8.98;;
9942;SDS011;5010;45.080;7.634;2024-02-23T17:33:32;15.02;;;9.45;;
9942;SDS011;5010;45.080;7.634;2024-02-23T17:36:16;18.08;;;8.70;;
9942;SDS011;5010;45.080;7.634;2024-02-23T17:39:34;16.88;;;11.10;;
9942;SDS011;5010;45.080;7.634;2024-02-23T17:42:25;18.10;;;10.02;;
9942;SDS011;5010;45.080;7.634;2024-02-23T17:46:05;12.20;;;8.93;;
9942;SDS011;5010;45.080;7.634;2024-02-23T17:48:34;20.17;;;11.80;;
9942;SDS011;5010;45.080;7.634;2024-02-23T17:57:44;13.77;;;8.13;;
9942;SDS011;5010;45.080;7.634;2024-02-23T18:04:18;12.70;;;7.85;;
9942;SDS011;5010;45.080;7.634;2024-02-23T18:06:58;14.75;;;9.25;;
9942;SDS011;5010;45.080;7.634;2024-02-23T18:09:26;12.98;;;8.80;;
9942;SDS011;5010;45.080;7.634;2024-02-23T18:18:49;12.93;;;8.70;;
9942;SDS011;5010;45.080;7.634;2024-02-23T18:28:06;13.55;;;9.43;;
9942;SDS011;5010;45.080;7.634;2024-02-23T18:30:34;15.15;;;9.63;;
9942;SDS011;5010;45.080;7.634;2024-02-23T18:33:02;19.67;;;9.40;;
9942;SDS011;5010;45.080;7.634;2024-02-23T18:35:30;100.68;;;53.28;;
9942;SDS011;5010;45.080;7.634;2024-02-23T18:38:07;21.77;;;13.65;;
9942;SDS011;5010;45.080;7.634;2024-02-23T18:48:15;14.10;;;10.98;;
9942;SDS011;5010;45.080;7.634;2024-02-23T18:51:01;17.42;;;9.65;;
9942;SDS011;5010;45.080;7.634;2024-02-23T19:00:31;18.85;;;10.25;;
9942;SDS011;5010;45.080;7.634;2024-02-23T19:09:42;19.10;;;11.25;;
9942;SDS011;5010;45.080;7.634;2024-02-23T19:12:40;14.07;;;11.27;;
9942;SDS011;5010;45.080;7.634;2024-02-23T19:29:30;19.92;;;11.48;;
9942;SDS011;5010;45.080;7.634;2024-02-23T19:42:08;24.98;;;11.20;;
9942;SDS011;5010;45.080;7.634;2024-02-23T19:47:59;19.88;;;11.70;;
9942;SDS011;5010;45.080;7.634;2024-02-23T19:50:42;20.50;;;12.00;;
9942;SDS011;5010;45.080;7.634;2024-02-23T20:00:35;25.73;;;18.30;;
9942;SDS011;5010;45.080;7.634;2024-02-23T20:06:31;16.98;;;11.30;;
9942;SDS011;5010;45.080;7.634;2024-02-23T20:15:30;22.35;;;12.23;;
9942;SDS011;5010;45.080;7.634;2024-02-23T20:24:22;18.80;;;11.15;;
9942;SDS011;5010;45.080;7.634;2024-02-23T20:26:53;16.42;;;10.55;;
9942;SDS011;5010;45.080;7.634;2024-02-23T20:29:22;18.48;;;11.93;;
9942;SDS011;5010;45.080;7.634;2024-02-23T20:31:52;21.25;;;11.02;;
9942;SDS011;5010;45.080;7.634;2024-02-23T20:34:20;21.58;;;11.10;;
9942;SDS011;5010;45.080;7.634;2024-02-23T20:36:48;19.08;;;13.23;;
9942;SDS011;5010;45.080;7.634;2024-02-23T20:39:17;21.52;;;11.00;;
9942;SDS011;5010;45.080;7.634;2024-02-23T20:41:45;24.52;;;13.15;;
9942;SDS011;5010;45.080;7.634;2024-02-23T20:44:13;18.48;;;11.80;;
9942;SDS011;5010;45.080;7.634;2024-02-23T20:46:40;15.13;;;9.98;;
9942;SDS011;5010;45.080;7.634;2024-02-23T20:49:08;20.20;;;11.38;;
9942;SDS011;5010;45.080;7.634;2024-02-23T20:51:36;21.58;;;13.27;;
9942;SDS011;5010;45.080;7.634;2024-02-23T20:54:04;15.57;;;11.20;;
9942;SDS011;5010;45.080;7.634;2024-02-23T20:56:33;18.42;;;11.32;;
9942;SDS011;5010;45.080;7.634;2024-02-23T20:59:01;20.33;;;11.85;;
9942;SDS011;5010;45.080;7.634;2024-02-23T21:01:28;25.00;;;13.63;;
9942;SDS011;5010;45.080;7.634;2024-02-23T21:03:56;15.90;;;9.32;;
9942;SDS011;5010;45.080;7.634;2024-02-23T21:06:26;20.88;;;13.32;;
9942;SDS011;5010;45.080;7.634;2024-02-23T21:08:54;15.18;;;11.00;;
9942;SDS011;5010;45.080;7.634;2024-02-23T21:11:22;22.13;;;11.85;;
9942;SDS011;5010;45.080;7.634;2024-02-23T21:13:52;23.40;;;13.65;;
9942;SDS011;5010;45.080;7.634;2024-02-23T21:16:21;23.45;;;14.02;;
9942;SDS011;5010;45.080;7.634;2024-02-23T21:18:48;19.15;;;11.75;;
9942;SDS011;5010;45.080;7.634;2024-02-23T21:21:16;20.08;;;11.35;;
9942;SDS011;5010;45.080;7.634;2024-02-23T21:23:46;19.77;;;11.45;;
9942;SDS011;5010;45.080;7.634;2024-02-23T21:26:14;25.65;;;12.90;;
9942;SDS011;5010;45.080;7.634;2024-02-23T21:28:42;21.45;;;11.70;;
9942;SDS011;5010;45.080;7.634;2024-02-23T21:31:11;25.85;;;16.85;;
9942;SDS011;5010;45.080;7.634;2024-02-23T21:33:40;17.20;;;14.30;;
9942;SDS011;5010;45.080;7.634;2024-02-23T21:36:09;20.02;;;11.30;;
9942;SDS011;5010;45.080;7.634;2024-02-23T21:38:36;22.65;;;12.35;;
9942;SDS011;5010;45.080;7.634;2024-02-23T21:41:04;16.05;;;13.05;;
9942;SDS011;5010;45.080;7.634;2024-02-23T21:43:32;18.67;;;10.65;;
9942;SDS011;5010;45.080;7.634;2024-02-23T21:45:59;17.15;;;11.45;;
9942;SDS011;5010;45.080;7.634;2024-02-23T21:48:28;22.00;;;11.38;;
9942;SDS011;5010;45.080;7.634;2024-02-23T21:50:57;14.45;;;9.07;;
9942;SDS011;5010;45.080;7.634;2024-02-23T21:53:24;16.98;;;10.13;;
9942;SDS011;5010;45.080;7.634;2024-02-23T21:55:52;18.33;;;10.93;;
9942;SDS011;5010;45.080;7.634;2024-02-23T21:58:20;21.90;;;11.95;;
9942;SDS011;5010;45.080;7.634;2024-02-23T22:00:47;17.83;;;10.07;;
9942;SDS011;5010;45.080;7.634;2024-02-23T22:03:17;19.73;;;10.52;;
9942;SDS011;5010;45.080;7.634;2024-02-23T22:05:47;14.55;;;9.52;;
9942;SDS011;5010;45.080;7.634;2024-02-23T22:08:15;13.73;;;8.80;;
9942;SDS011;5010;45.080;7.634;2024-02-23T22:10:43;16.33;;;10.90;;
9942;SDS011;5010;45.080;7.634;2024-02-23T22:13:11;15.13;;;9.40;;
9942;SDS011;5010;45.080;7.634;2024-02-23T22:15:38;13.38;;;7.28;;
9942;SDS011;5010;45.080;7.634;2024-02-23T22:18:06;12.48;;;7.55;;
9942;SDS011;5010;45.080;7.634;2024-02-23T22:20:34;15.25;;;9.82;;
9942;SDS011;5010;45.080;7.634;2024-02-23T22:23:04;9.57;;;5.70;;
9942;SDS011;5010;45.080;7.634;2024-02-23T22:25:32;12.10;;;8.27;;
9942;SDS011;5010;45.080;7.634;2024-02-23T22:28:03;15.77;;;8.65;;
9942;SDS011;5010;45.080;7.634;2024-02-23T22:30:31;11.65;;;5.28;;
9942;SDS011;5010;45.080;7.634;2024-02-23T22:32:58;9.38;;;6.03;;
9942;SDS011;5010;45.080;7.634;2024-02-23T22:35:26;8.77;;;6.53;;
9942;SDS011;5010;45.080;7.634;2024-02-23T22:37:54;11.65;;;5.93;;
9942;SDS011;5010;45.080;7.634;2024-02-23T22:40:24;10.32;;;4.90;;
9942;SDS011;5010;45.080;7.634;2024-02-23T22:42:52;9.23;;;5.22;;
9942;SDS011;5010;45.080;7.634;2024-02-23T22:45:19;8.30;;;4.13;;
9942;SDS011;5010;45.080;7.634;2024-02-23T22:47:47;7.97;;;4.05;;
9942;SDS011;5010;45.080;7.634;2024-02-23T22:50:15;9.45;;;5.30;;
9942;SDS011;5010;45.080;7.634;2024-02-23T22:52:43;9.23;;;4.32;;
9942;SDS011;5010;45.080;7.634;2024-02-23T22:55:11;9.27;;;5.75;;
9942;SDS011;5010;45.080;7.634;2024-02-23T22:57:40;7.97;;;3.78;;
9942;SDS011;5010;45.080;7.634;2024-02-23T23:00:08;9.32;;;5.65;;
9942;SDS011;5010;45.080;7.634;2024-02-23T23:02:38;7.35;;;4.70;;
9942;SDS011;5010;45.080;7.634;2024-02-23T23:05:06;10.13;;;4.10;;
9942;SDS011;5010;45.080;7.634;2024-02-23T23:07:35;5.18;;;3.00;;
9942;SDS011;5010;45.080;7.634;2024-02-23T23:10:03;12.30;;;7.30;;
9942;SDS011;5010;45.080;7.634;2024-02-23T23:12:32;11.73;;;6.10;;
9942;SDS011;5010;45.080;7.634;2024-02-23T23:15:02;12.93;;;6.35;;
9942;SDS011;5010;45.080;7.634;2024-02-23T23:17:30;8.02;;;4.97;;
9942;SDS011;5010;45.080;7.634;2024-02-23T23:19:57;11.43;;;5.82;;
9942;SDS011;5010;45.080;7.634;2024-02-23T23:22:30;9.90;;;3.95;;
9942;SDS011;5010;45.080;7.634;2024-02-23T23:24:58;10.93;;;5.40;;
9942;SDS011;5010;45.080;7.634;2024-02-23T23:27:25;7.30;;;3.70;;
9942;SDS011;5010;45.080;7.634;2024-02-23T23:29:53;10.52;;;6.18;;
9942;SDS011;5010;45.080;7.634;2024-02-23T23:32:22;6.95;;;2.45;;
9942;SDS011;5010;45.080;7.634;2024-02-23T23:34:50;16.05;;;6.15;;
9942;SDS011;5010;45.080;7.634;2024-02-23T23:37:18;6.88;;;4.10;;
9942;SDS011;5010;45.080;7.634;2024-02-23T23:39:45;7.63;;;3.60;;
9942;SDS011;5010;45.080;7.634;2024-02-23T23:42:14;6.38;;;3.50;;
9942;SDS011;5010;45.080;7.634;2024-02-23T23:44:41;9.13;;;5.43;;
9942;SDS011;5010;45.080;7.634;2024-02-23T23:47:09;12.98;;;4.28;;
9942;SDS011;5010;45.080;7.634;2024-02-23T23:49:38;9.25;;;4.45;;
9942;SDS011;5010;45.080;7.634;2024-02-23T23:52:06;9.25;;;3.70;;
9942;SDS011;5010;45.080;7.634;2024-02-23T23:54:34;6.78;;;3.60;;
9942;SDS011;5010;45.080;7.634;2024-02-23T23:57:01;6.13;;;3.45;;
9942;SDS011;5010;45.080;7.634;2024-02-23T23:59:29;7.97;;;3.20;;
